Terminal Aerodrome Forecast
Issued by NWS

Home | Current Version | Previous Version | Text Only | Print | Product List | Glossary On
Versions: 1 2 3 4 5 6 7 8 9 10 11 12 13 14 15 16 17 18 19
000
FTUS42 KJAX 252340
TAFCRG
TAF
KCRG 252340Z 2600/2624 11010G15KT P6SM FEW025 BKN250
     FM260200 13007KT P6SM SCT025
     FM260700 12002KT P6SM BKN015
     FM261300 14007KT P6SM BKN025
     FM261600 14008KT P6SM BKN035=

USA.gov is the U.S. government's official web portal to all federal, state and local government web resources and services.